Terminal Aerodrome Forecast
Issued by NWS Sioux Falls, SD

Home | Current Version | Previous Version | Text Only | Print | Product List | Glossary Off
Versions: 1 2 3 4 5 6 7 8 9 10 11 12 13 14 15 16 17 18 19 20

000
FTUS43 KFSD 020528
TAFFSD
TAF
KFSD 020528Z 0206/0306 12008KT P6SM SCT100 BKN250
     FM021200 12008KT P6SM SCT025 BKN035
      TEMPO 0216/0219 -SHRA BKN025
     FM022200 15006KT P6SM OVC050
     FM030100 18006KT P6SM BKN150=

USA.gov is the U.S. government's official web portal to all federal, state and local government web resources and services.